createdAt,value
2023-03-04T00:00:07.880Z,99.90
2023-03-04T00:02:37.990Z,99.90
2023-03-04T00:05:06.854Z,99.90
2023-03-04T00:07:34.716Z,99.90
2023-03-04T00:10:02.635Z,99.90
2023-03-04T00:12:31.970Z,99.90
2023-03-04T00:14:59.869Z,99.90
2023-03-04T00:17:29.979Z,99.90
2023-03-04T00:19:57.913Z,99.90
2023-03-04T00:22:25.891Z,99.90
2023-03-04T00:24:53.752Z,99.90
2023-03-04T00:27:21.613Z,99.90
2023-03-04T00:29:50.878Z,99.90
2023-03-04T00:32:19.252Z,99.90
2023-03-04T00:34:47.166Z,99.90
2023-03-04T00:37:15.284Z,99.90
2023-03-04T00:39:43.145Z,99.90
2023-03-04T00:42:10.989Z,99.90
2023-03-04T00:44:39.976Z,99.90
2023-03-04T00:47:09.258Z,99.90
2023-03-04T00:49:37.908Z,99.90
2023-03-04T00:52:05.812Z,99.90
2023-03-04T00:54:33.750Z,99.90
2023-03-04T00:57:01.634Z,99.90
2023-03-04T00:59:29.535Z,99.90
2023-03-04T01:01:57.430Z,99.90
2023-03-04T01:04:26.765Z,99.90
2023-03-04T01:06:54.997Z,99.90
2023-03-04T01:09:23.006Z,99.90
2023-03-04T01:11:50.913Z,99.90
2023-03-04T01:14:18.792Z,99.90
2023-03-04T01:16:46.922Z,99.90
2023-03-04T01:19:14.858Z,99.90
2023-03-04T01:21:44.093Z,99.90
2023-03-04T01:24:11.981Z,99.90
2023-03-04T01:26:41.809Z,99.90
2023-03-04T01:29:09.815Z,99.90
2023-03-04T01:31:37.817Z,99.90
2023-03-04T01:34:05.697Z,99.90
2023-03-04T01:36:33.607Z,99.90
2023-03-04T01:39:02.837Z,99.90
2023-03-04T01:41:30.731Z,99.90
2023-03-04T01:44:02.256Z,99.90
2023-03-04T01:46:31.354Z,99.90
2023-03-04T01:49:00.069Z,99.90
2023-03-04T01:51:28.097Z,99.90
2023-03-04T01:53:56.695Z,99.90
2023-03-04T01:56:30.628Z,99.90
2023-03-04T01:59:10.081Z,99.90
2023-03-04T02:01:39.034Z,99.90
2023-03-04T02:04:08.689Z,99.90
2023-03-04T02:06:37.158Z,99.90
2023-03-04T02:09:05.524Z,99.90
2023-03-04T02:11:36.561Z,99.90
2023-03-04T02:14:04.778Z,99.90
2023-03-04T02:16:33.571Z,99.90
2023-03-04T02:19:01.902Z,99.90
2023-03-04T02:21:31.647Z,99.90
2023-03-04T02:24:09.152Z,99.90
2023-03-04T02:26:41.266Z,99.90
2023-03-04T02:29:11.448Z,99.90
2023-03-04T02:31:41.620Z,99.90
2023-03-04T02:34:14.417Z,99.90
2023-03-04T02:36:43.280Z,99.90
2023-03-04T02:39:14.699Z,99.90
2023-03-04T02:41:44.659Z,99.90
2023-03-04T02:44:18.970Z,99.90
2023-03-04T02:46:48.228Z,99.90
2023-03-04T02:49:16.513Z,99.90
2023-03-04T02:51:44.814Z,99.90
2023-03-04T02:54:16.944Z,99.90
2023-03-04T02:56:50.881Z,99.90
2023-03-04T02:59:20.136Z,99.90
2023-03-04T03:01:48.157Z,99.90
2023-03-04T03:04:16.269Z,99.90
2023-03-04T03:06:45.699Z,99.90
2023-03-04T03:09:13.972Z,99.90
2023-03-04T03:11:42.023Z,99.90
2023-03-04T03:14:11.886Z,99.90
2023-03-04T03:16:40.023Z,99.90
2023-03-04T03:19:08.019Z,99.90
2023-03-04T03:21:37.792Z,99.90
2023-03-04T03:24:05.766Z,99.90
2023-03-04T03:26:33.731Z,99.90
2023-03-04T03:29:01.616Z,99.90
2023-03-04T03:31:31.406Z,99.90
2023-03-04T03:33:59.388Z,99.90
2023-03-04T03:36:29.024Z,99.90
2023-03-04T03:38:56.942Z,99.90
2023-03-04T03:41:24.854Z,99.90
2023-03-04T03:43:52.679Z,99.90
2023-03-04T03:46:20.537Z,99.90
2023-03-04T03:48:49.771Z,99.90
2023-03-04T03:51:17.650Z,99.90
2023-03-04T03:53:45.644Z,99.90
2023-03-04T03:56:13.516Z,99.90
2023-03-04T03:58:41.351Z,99.90
2023-03-04T04:01:09.344Z,99.90
2023-03-04T04:03:37.345Z,99.90
2023-03-04T04:06:07.202Z,99.90
2023-03-04T04:08:35.276Z,99.90
2023-03-04T04:11:03.282Z,99.90
2023-03-04T04:13:31.166Z,99.90
2023-03-04T04:15:59.506Z,99.90
2023-03-04T04:18:27.812Z,99.90
2023-03-04T04:20:56.053Z,99.90
2023-03-04T04:23:25.480Z,99.90
2023-03-04T04:25:55.871Z,99.90
2023-03-04T04:28:23.746Z,99.90
2023-03-04T04:30:51.862Z,99.90
2023-03-04T04:33:19.858Z,99.90
2023-03-04T04:35:47.890Z,99.90
2023-03-04T04:38:16.786Z,99.90
2023-03-04T04:40:46.002Z,99.90
2023-03-04T04:43:13.966Z,99.90
2023-03-04T04:45:42.320Z,99.90
2023-03-04T04:48:10.278Z,99.90
2023-03-04T04:50:38.143Z,99.90
2023-03-04T04:53:06.052Z,99.90
2023-03-04T04:55:35.284Z,99.90
2023-03-04T04:58:06.947Z,99.90
2023-03-04T05:00:34.874Z,99.90
2023-03-04T05:03:02.754Z,99.90
2023-03-04T05:05:30.637Z,99.90
2023-03-04T05:07:58.701Z,99.90
2023-03-04T05:10:26.631Z,99.90
2023-03-04T05:12:54.519Z,99.90
2023-03-04T05:15:23.764Z,99.90
2023-03-04T05:17:51.705Z,99.90
2023-03-04T05:20:19.728Z,99.90
2023-03-04T05:22:47.591Z,99.90
2023-03-04T05:25:15.570Z,99.90
2023-03-04T05:27:43.417Z,99.90
2023-03-04T05:30:12.594Z,99.90
2023-03-04T05:32:41.851Z,99.90
2023-03-04T05:35:10.589Z,99.90
2023-03-04T05:37:38.552Z,99.90
2023-03-04T05:40:07.573Z,99.90
2023-03-04T05:42:35.452Z,99.90
2023-03-04T05:45:03.345Z,99.90
2023-03-04T05:47:31.265Z,99.90
2023-03-04T05:50:00.462Z,99.90
2023-03-04T05:52:28.347Z,99.90
2023-03-04T05:54:56.238Z,99.90
2023-03-04T05:57:24.100Z,99.90
2023-03-04T05:59:52.050Z,99.90
2023-03-04T06:02:19.959Z,99.90
2023-03-04T06:04:47.869Z,99.90
2023-03-04T06:07:17.190Z,99.90
2023-03-04T06:09:45.183Z,99.90
2023-03-04T06:12:13.190Z,99.90
2023-03-04T06:14:41.049Z,99.90
2023-03-04T06:17:09.043Z,99.90
2023-03-04T06:19:37.946Z,99.90
2023-03-04T06:22:06.265Z,99.90
2023-03-04T06:24:35.694Z,99.90
2023-03-04T06:27:03.548Z,99.90
2023-03-04T06:29:31.404Z,99.90
2023-03-04T06:31:59.424Z,99.90
2023-03-04T06:34:28.199Z,99.90
2023-03-04T06:36:56.061Z,99.90
2023-03-04T06:39:23.937Z,99.90
2023-03-04T06:41:53.174Z,99.90
2023-03-04T06:44:21.140Z,99.90
2023-03-04T06:46:49.120Z,99.90
2023-03-04T06:49:17.306Z,99.90
2023-03-04T06:51:45.149Z,99.90
2023-03-04T06:54:13.034Z,99.90
2023-03-04T06:56:40.895Z,99.90
2023-03-04T06:59:10.148Z,99.90
2023-03-04T07:01:38.456Z,99.90
2023-03-04T07:04:06.542Z,99.90
2023-03-04T07:06:34.419Z,99.90
2023-03-04T07:09:02.432Z,99.90
2023-03-04T07:11:30.371Z,99.90
2023-03-04T07:13:58.285Z,99.90
2023-03-04T07:16:27.634Z,99.90
2023-03-04T07:18:55.536Z,99.90
2023-03-04T07:21:23.443Z,99.90
2023-03-04T07:23:51.460Z,99.90
2023-03-04T07:26:19.915Z,99.90
2023-03-04T07:28:47.874Z,99.90
2023-03-04T07:31:23.190Z,99.90
2023-03-04T07:33:53.065Z,99.90
2023-03-04T07:36:20.977Z,99.90
2023-03-04T07:38:50.254Z,99.90
2023-03-04T07:41:19.023Z,99.90
2023-03-04T07:43:46.954Z,99.90
2023-03-04T07:46:15.042Z,99.90
2023-03-04T07:48:42.980Z,99.90
2023-03-04T07:51:14.147Z,99.90
2023-03-04T07:53:43.547Z,99.90
2023-03-04T07:56:13.851Z,99.90
2023-03-04T07:58:41.953Z,99.90
2023-03-04T08:01:11.601Z,99.90
2023-03-04T08:03:40.083Z,99.90
2023-03-04T08:06:08.841Z,99.90
2023-03-04T08:08:38.494Z,99.90
2023-03-04T08:11:07.595Z,99.90
2023-03-04T08:13:36.163Z,99.90
2023-03-04T08:16:06.031Z,99.90
2023-03-04T08:18:33.978Z,99.90
2023-03-04T08:21:01.905Z,99.90
2023-03-04T08:23:29.811Z,99.90
2023-03-04T08:25:59.077Z,99.90
2023-03-04T08:28:26.980Z,99.90
2023-03-04T08:30:56.662Z,99.90
2023-03-04T08:33:24.544Z,99.90
2023-03-04T08:35:52.468Z,99.90
2023-03-04T08:38:20.361Z,99.90
2023-03-04T08:40:53.799Z,99.90
2023-03-04T08:43:23.063Z,99.90
2023-03-04T08:45:51.158Z,99.90
2023-03-04T08:48:19.461Z,99.90
2023-03-04T08:50:47.574Z,99.90
2023-03-04T08:53:15.937Z,99.90
2023-03-04T08:55:44.361Z,99.90
2023-03-04T08:58:12.729Z,99.90
2023-03-04T09:00:44.162Z,99.90
2023-03-04T09:03:13.953Z,99.90
2023-03-04T09:05:42.108Z,99.30
2023-03-04T09:08:10.693Z,98.70
2023-03-04T09:10:38.686Z,99.40
2023-03-04T09:13:08.206Z,99.10
2023-03-04T09:15:36.507Z,98.10
2023-03-04T09:18:06.544Z,98.40
2023-03-04T09:20:34.467Z,98.00
2023-03-04T09:23:02.466Z,97.30
2023-03-04T09:25:30.342Z,95.30
2023-03-04T09:27:58.233Z,94.60
2023-03-04T09:30:28.022Z,94.30
2023-03-04T09:32:56.735Z,94.20
2023-03-04T09:35:26.305Z,93.00
2023-03-04T09:37:54.245Z,92.80
2023-03-04T09:40:25.354Z,91.90
2023-03-04T09:42:58.029Z,91.80
2023-03-04T09:45:32.082Z,91.20
2023-03-04T09:48:00.813Z,90.90
2023-03-04T09:50:34.564Z,91.30
2023-03-04T09:53:11.759Z,90.80
2023-03-04T09:55:41.511Z,90.60
2023-03-04T09:58:21.676Z,89.30
2023-03-04T10:00:57.090Z,89.10
2023-03-04T10:03:28.418Z,89.50
2023-03-04T10:06:01.690Z,85.80
2023-03-04T10:08:41.053Z,83.80
2023-03-04T10:11:14.972Z,85.70
2023-03-04T10:13:55.189Z,85.20
2023-03-04T10:16:27.000Z,84.30
2023-03-04T10:18:59.709Z,83.80
2023-03-04T10:21:34.266Z,83.30
2023-03-04T10:24:06.529Z,83.90
2023-03-04T10:26:34.954Z,82.40
2023-03-04T10:29:06.930Z,79.60
2023-03-04T10:31:38.988Z,79.20
2023-03-04T10:34:07.757Z,80.90
2023-03-04T10:36:48.747Z,81.90
2023-03-04T10:39:22.877Z,80.90
2023-03-04T10:41:57.974Z,80.30
2023-03-04T10:44:26.737Z,81.10
2023-03-04T10:46:56.865Z,80.40
2023-03-04T10:49:26.501Z,79.80
2023-03-04T10:52:02.848Z,81.10
2023-03-04T10:54:34.697Z,81.80
2023-03-04T10:57:05.320Z,79.90
2023-03-04T10:59:43.667Z,81.40
2023-03-04T11:02:21.843Z,79.60
2023-03-04T11:04:55.607Z,77.70
2023-03-04T11:07:26.654Z,79.50
2023-03-04T11:09:57.316Z,80.40
2023-03-04T11:12:34.933Z,79.50
2023-03-04T11:15:03.939Z,80.60
2023-03-04T11:17:44.094Z,81.90
2023-03-04T11:20:19.261Z,83.80
2023-03-04T11:22:48.641Z,85.30
2023-03-04T11:25:25.056Z,85.90
2023-03-04T11:27:56.856Z,84.80
2023-03-04T11:30:35.271Z,84.80
2023-03-04T11:33:14.430Z,83.20
2023-03-04T11:35:49.665Z,80.10
2023-03-04T11:38:21.344Z,79.60
2023-03-04T11:40:54.104Z,82.10
2023-03-04T11:43:28.389Z,82.60
2023-03-04T11:46:21.524Z,84.20
2023-03-04T11:48:58.008Z,83.40
2023-03-04T11:51:35.954Z,86.70
2023-03-04T11:54:18.527Z,85.80
2023-03-04T11:56:50.383Z,86.90
2023-03-04T11:59:46.742Z,86.20
2023-03-04T12:02:20.423Z,85.90
2023-03-04T12:05:02.675Z,87.10
2023-03-04T12:07:47.605Z,88.30
2023-03-04T12:10:24.480Z,89.30
2023-03-04T12:13:18.267Z,87.30
2023-03-04T12:15:54.518Z,91.30
2023-03-04T12:18:44.309Z,91.30
2023-03-04T12:21:23.928Z,93.00
2023-03-04T12:24:26.744Z,93.80
2023-03-04T12:27:01.531Z,93.80
2023-03-04T12:29:40.240Z,94.30
2023-03-04T12:32:18.697Z,94.60
2023-03-04T12:34:58.480Z,95.80
2023-03-04T12:37:42.674Z,96.30
2023-03-04T12:40:35.869Z,96.80
2023-03-04T12:43:14.347Z,96.30
2023-03-04T12:45:48.447Z,96.60
2023-03-04T12:48:27.743Z,97.30
2023-03-04T12:51:08.201Z,97.00
2023-03-04T12:53:41.217Z,96.40
2023-03-04T12:56:23.038Z,97.20
2023-03-04T12:58:53.138Z,98.20
2023-03-04T13:01:27.303Z,97.80
2023-03-04T13:04:02.840Z,97.30
2023-03-04T13:06:42.623Z,97.20
2023-03-04T13:09:20.453Z,96.80
2023-03-04T13:12:03.736Z,97.40
2023-03-04T13:14:36.175Z,98.10
2023-03-04T13:17:43.306Z,97.80
2023-03-04T13:20:24.122Z,98.50
2023-03-04T13:22:56.926Z,97.50
2023-03-04T13:25:34.892Z,97.30
2023-03-04T13:28:22.293Z,97.30
2023-03-04T13:31:24.360Z,96.80
2023-03-04T13:34:00.540Z,97.00
2023-03-04T13:36:59.233Z,96.60
2023-03-04T13:39:37.061Z,98.10
2023-03-04T13:42:36.069Z,99.10
2023-03-04T13:45:04.692Z,99.90
2023-03-04T13:47:48.291Z,99.90
2023-03-04T13:50:23.830Z,99.20
2023-03-04T13:52:51.806Z,99.60
2023-03-04T13:55:38.616Z,99.90
2023-03-04T13:58:26.292Z,99.90
2023-03-04T14:00:56.540Z,99.90
2023-03-04T14:03:28.733Z,99.90
2023-03-04T14:06:19.844Z,99.90
2023-03-04T14:08:48.870Z,99.90
2023-03-04T14:11:22.588Z,99.90
2023-03-04T14:13:50.606Z,99.90
2023-03-04T14:16:22.482Z,99.90
2023-03-04T14:19:03.522Z,99.90
2023-03-04T14:21:31.954Z,99.90
2023-03-04T14:24:06.147Z,99.90
2023-03-04T14:26:34.774Z,99.90
2023-03-04T14:29:03.062Z,99.90
2023-03-04T14:31:35.491Z,99.90
2023-03-04T14:34:05.438Z,99.90
2023-03-04T14:36:35.425Z,99.90
2023-03-04T14:39:06.809Z,99.90
2023-03-04T14:41:38.045Z,99.90
2023-03-04T14:44:12.512Z,99.90
2023-03-04T14:46:47.508Z,99.90
2023-03-04T14:49:20.785Z,99.90
2023-03-04T14:51:51.091Z,99.90
2023-03-04T14:54:37.279Z,99.90
2023-03-04T14:57:24.056Z,99.90
2023-03-04T14:59:52.972Z,99.90
2023-03-04T15:02:36.553Z,99.90
2023-03-04T15:05:16.938Z,99.90
2023-03-04T15:07:50.788Z,99.90
2023-03-04T15:10:23.901Z,99.90
2023-03-04T15:12:53.554Z,99.90
2023-03-04T15:15:43.354Z,99.90
2023-03-04T15:18:22.032Z,99.90
2023-03-04T15:21:03.010Z,99.90
2023-03-04T15:23:32.339Z,99.90
2023-03-04T15:26:02.278Z,99.90
2023-03-04T15:28:33.655Z,99.90
2023-03-04T15:31:01.642Z,99.90
2023-03-04T15:33:29.642Z,99.90
2023-03-04T15:36:00.980Z,99.90
2023-03-04T15:38:30.383Z,99.90
2023-03-04T15:40:59.790Z,99.90
2023-03-04T15:43:27.818Z,99.90
2023-03-04T15:45:55.707Z,99.90
2023-03-04T15:48:23.628Z,99.90
2023-03-04T15:50:56.275Z,99.90
2023-03-04T15:53:32.623Z,99.90
2023-03-04T15:56:01.688Z,99.90
2023-03-04T15:58:32.094Z,99.90
2023-03-04T16:01:01.071Z,99.90
2023-03-04T16:03:28.951Z,99.90
2023-03-04T16:05:58.067Z,99.90
2023-03-04T16:08:27.368Z,99.90
2023-03-04T16:10:55.247Z,99.90
2023-03-04T16:13:24.917Z,99.90
2023-03-04T16:15:53.205Z,99.90
2023-03-04T16:18:21.494Z,99.90
2023-03-04T16:20:50.736Z,99.90
2023-03-04T16:23:21.537Z,99.90
2023-03-04T16:25:53.122Z,99.90
2023-03-04T16:28:21.019Z,99.90
2023-03-04T16:30:49.086Z,99.90
2023-03-04T16:33:17.150Z,99.90
2023-03-04T16:35:46.507Z,99.90
2023-03-04T16:38:25.729Z,99.90
2023-03-04T16:40:56.530Z,99.90
2023-03-04T16:43:25.384Z,99.90
2023-03-04T16:45:53.454Z,99.90
2023-03-04T16:48:21.437Z,99.90
2023-03-04T16:50:49.472Z,99.90
2023-03-04T16:53:25.854Z,99.90
2023-03-04T16:55:55.764Z,99.90
2023-03-04T16:58:23.622Z,99.90
2023-03-04T17:00:51.567Z,99.90
2023-03-04T17:03:19.451Z,99.90
2023-03-04T17:05:47.721Z,99.90
2023-03-04T17:08:15.695Z,99.90
2023-03-04T17:10:43.620Z,99.90
2023-03-04T17:13:12.852Z,99.90
2023-03-04T17:15:42.801Z,99.90
2023-03-04T17:18:10.844Z,99.90
2023-03-04T17:20:38.871Z,99.90
2023-03-04T17:23:06.864Z,99.90
2023-03-04T17:25:34.953Z,99.90
2023-03-04T17:28:02.859Z,99.90
2023-03-04T17:30:32.746Z,99.90
2023-03-04T17:33:00.641Z,99.90
2023-03-04T17:35:28.512Z,99.90
2023-03-04T17:37:56.410Z,99.90
2023-03-04T17:40:24.360Z,99.90
2023-03-04T17:42:52.248Z,99.90
2023-03-04T17:45:20.227Z,99.90
2023-03-04T17:47:49.476Z,99.90
2023-03-04T17:50:17.818Z,99.90
2023-03-04T17:52:45.672Z,99.90
2023-03-04T17:55:13.579Z,99.90
2023-03-04T17:57:41.444Z,99.90
2023-03-04T18:00:10.746Z,99.90
2023-03-04T18:02:38.591Z,99.90
2023-03-04T18:05:08.763Z,99.90
2023-03-04T18:07:36.617Z,99.90
2023-03-04T18:10:05.214Z,99.90
2023-03-04T18:12:33.300Z,99.90
2023-03-04T18:15:01.182Z,99.90
2023-03-04T18:17:29.081Z,99.90
2023-03-04T18:19:57.514Z,99.90
2023-03-04T18:22:26.774Z,99.90
2023-03-04T18:24:54.631Z,99.90
2023-03-04T18:27:22.540Z,99.90
2023-03-04T18:29:50.416Z,99.90
2023-03-04T18:32:18.450Z,99.90
2023-03-04T18:34:46.334Z,99.90
2023-03-04T18:37:14.336Z,99.90
2023-03-04T18:39:43.552Z,99.90
2023-03-04T18:42:11.478Z,99.90
2023-03-04T18:44:39.499Z,99.90
2023-03-04T18:47:08.028Z,99.90
2023-03-04T18:49:35.963Z,99.90
2023-03-04T18:52:03.839Z,99.90
2023-03-04T18:54:31.716Z,99.90
2023-03-04T18:57:04.746Z,99.90
2023-03-04T18:59:37.078Z,99.90
2023-03-04T19:02:11.300Z,99.90
2023-03-04T19:04:39.288Z,99.90
2023-03-04T19:07:07.161Z,99.90
2023-03-04T19:09:35.089Z,99.90
2023-03-04T19:12:06.467Z,99.90
2023-03-04T19:14:34.488Z,99.90
2023-03-04T19:17:02.353Z,99.90
2023-03-04T19:19:30.259Z,99.90
2023-03-04T19:22:10.537Z,99.90
2023-03-04T19:24:39.355Z,99.90
2023-03-04T19:27:08.560Z,99.90
2023-03-04T19:29:36.552Z,99.90
2023-03-04T19:32:04.575Z,99.90
2023-03-04T19:34:32.512Z,99.90
2023-03-04T19:37:00.391Z,99.90
2023-03-04T19:39:28.298Z,99.90
2023-03-04T19:41:56.147Z,99.90
2023-03-04T19:44:25.392Z,99.90
2023-03-04T19:46:53.330Z,99.90
2023-03-04T19:49:21.201Z,99.90
2023-03-04T19:51:49.037Z,99.90
2023-03-04T19:54:17.005Z,99.90
2023-03-04T19:56:44.896Z,99.90
2023-03-04T19:59:12.742Z,99.90
2023-03-04T20:01:44.672Z,99.90
2023-03-04T20:04:17.393Z,99.90
2023-03-04T20:06:46.743Z,99.90
2023-03-04T20:09:17.191Z,99.90
2023-03-04T20:11:57.224Z,99.90
2023-03-04T20:14:25.960Z,99.90
2023-03-04T20:16:55.445Z,99.90
2023-03-04T20:19:23.318Z,99.90
2023-03-04T20:21:51.209Z,99.90
2023-03-04T20:24:19.931Z,99.90
2023-03-04T20:26:47.811Z,99.90
2023-03-04T20:29:15.924Z,99.90
2023-03-04T20:31:44.640Z,99.90
2023-03-04T20:34:14.751Z,99.90
2023-03-04T20:36:42.677Z,99.90
2023-03-04T20:39:26.959Z,99.90
2023-03-04T20:42:08.812Z,99.90
2023-03-04T20:44:39.601Z,99.90
2023-03-04T20:47:07.578Z,99.90
2023-03-04T20:49:36.818Z,99.90
2023-03-04T20:52:06.386Z,99.90
2023-03-04T20:54:35.018Z,99.90
2023-03-04T20:57:05.411Z,99.90
2023-03-04T20:59:33.680Z,99.90
2023-03-04T21:02:01.720Z,99.90
2023-03-04T21:04:31.884Z,99.90
2023-03-04T21:07:02.287Z,99.90
2023-03-04T21:09:30.722Z,99.90
2023-03-04T21:12:00.712Z,99.90
2023-03-04T21:14:31.407Z,99.90
2023-03-04T21:17:01.933Z,99.90
2023-03-04T21:19:31.791Z,99.90
2023-03-04T21:22:01.888Z,99.90
2023-03-04T21:24:32.155Z,99.90
2023-03-04T21:27:01.467Z,99.90
2023-03-04T21:29:29.673Z,99.90
2023-03-04T21:32:12.966Z,99.90
2023-03-04T21:34:43.553Z,99.90
2023-03-04T21:37:12.821Z,99.90
2023-03-04T21:39:40.923Z,99.90
2023-03-04T21:42:08.862Z,99.90
2023-03-04T21:44:48.561Z,99.90
2023-03-04T21:47:17.853Z,99.90
2023-03-04T21:49:45.770Z,99.90
2023-03-04T21:52:15.015Z,99.90
2023-03-04T21:54:42.946Z,99.90
2023-03-04T21:57:10.884Z,99.90
2023-03-04T21:59:39.589Z,99.90
2023-03-04T22:02:08.265Z,99.90
2023-03-04T22:04:36.220Z,99.90
2023-03-04T22:07:04.135Z,99.90
2023-03-04T22:09:33.364Z,99.90
2023-03-04T22:12:01.261Z,99.90
2023-03-04T22:14:29.565Z,99.90
2023-03-04T22:16:57.546Z,99.90
2023-03-04T22:19:26.712Z,99.90
2023-03-04T22:21:55.241Z,99.90
2023-03-04T22:24:23.426Z,99.90
2023-03-04T22:26:52.790Z,99.90
2023-03-04T22:29:20.679Z,99.90
2023-03-04T22:31:48.570Z,99.90
2023-03-04T22:34:17.142Z,99.90
2023-03-04T22:36:47.527Z,99.90
2023-03-04T22:39:19.171Z,99.90
2023-03-04T22:41:47.526Z,99.90
2023-03-04T22:44:16.878Z,99.90
2023-03-04T22:46:44.885Z,99.90
2023-03-04T22:49:15.078Z,99.90
2023-03-04T22:51:44.662Z,99.90
2023-03-04T22:54:13.680Z,99.90
2023-03-04T22:56:41.587Z,99.90
2023-03-04T22:59:11.566Z,99.90
2023-03-04T23:01:40.805Z,99.90
2023-03-04T23:04:08.676Z,99.90
2023-03-04T23:06:37.627Z,99.90
2023-03-04T23:09:06.051Z,99.90
2023-03-04T23:11:36.919Z,99.90
2023-03-04T23:14:07.155Z,99.90
2023-03-04T23:16:39.059Z,99.90
2023-03-04T23:19:09.414Z,99.90
2023-03-04T23:21:38.693Z,99.90
2023-03-04T23:24:08.409Z,99.90
2023-03-04T23:26:38.810Z,99.90
2023-03-04T23:29:08.688Z,99.90
2023-03-04T23:31:37.762Z,99.90
2023-03-04T23:34:07.219Z,99.90
2023-03-04T23:36:37.340Z,99.90
2023-03-04T23:39:07.242Z,99.90
2023-03-04T23:41:36.020Z,99.90
2023-03-04T23:44:04.744Z,99.90
2023-03-04T23:46:33.073Z,99.90
2023-03-04T23:49:01.291Z,99.90
2023-03-04T23:51:30.459Z,99.90
2023-03-04T23:54:00.538Z,99.90
2023-03-04T23:56:30.006Z,99.90
2023-03-04T23:58:59.030Z,99.90
